Balkhash, Balkhash Airport (UAAH)

NameBalkhash Airport
CityBalkhash
CountryKazakhstan
ICAOUAAH
IATABXH
Altitude440 m
CoordinatesGoogle Map
Live Air TrafficLiveATC.net
METARUAAH 230800Z 08007MPS 060V120 CAVOK 24/03 Q1017 NOSIG RMK QFE725/0967
2019-08-23 08:00:00 Wind: East-Northeast (80°) 7 m/s - Visibility: > 10000 m - Weather: CAVOK - Temperature: 24 °C - Dew point: 3 °C - Humidity: 25.5% - Pressure: 1017 hPa

Sorry, no flights used the airport in this database.